sensor_id;sensor_type;location;lat;lon;timestamp;P1;durP1;ratioP1;P2;durP2;ratioP2
4597;SDS011;62772;48.646;8.906;2023-07-31T00:01:46;5.33;;;3.10;;
4597;SDS011;62772;48.646;8.906;2023-07-31T00:06:46;6.70;;;3.20;;
4597;SDS011;62772;48.646;8.906;2023-07-31T00:11:47;5.40;;;3.07;;
4597;SDS011;62772;48.646;8.906;2023-07-31T00:16:47;6.23;;;2.90;;
4597;SDS011;62772;48.646;8.906;2023-07-31T00:21:48;6.03;;;2.90;;
4597;SDS011;62772;48.646;8.906;2023-07-31T00:26:49;5.40;;;2.83;;
4597;SDS011;62772;48.646;8.906;2023-07-31T00:31:49;7.27;;;3.10;;
4597;SDS011;62772;48.646;8.906;2023-07-31T00:36:51;6.40;;;2.90;;
4597;SDS011;62772;48.646;8.906;2023-07-31T00:41:52;4.57;;;3.10;;
4597;SDS011;62772;48.646;8.906;2023-07-31T00:46:52;5.33;;;3.07;;
4597;SDS011;62772;48.646;8.906;2023-07-31T00:51:54;5.60;;;3.10;;
4597;SDS011;62772;48.646;8.906;2023-07-31T00:56:59;5.80;;;3.00;;
4597;SDS011;62772;48.646;8.906;2023-07-31T01:02:00;6.33;;;2.90;;
4597;SDS011;62772;48.646;8.906;2023-07-31T01:12:14;4.43;;;2.50;;
4597;SDS011;62772;48.646;8.906;2023-07-31T01:17:16;4.97;;;3.20;;
4597;SDS011;62772;48.646;8.906;2023-07-31T01:27:24;6.07;;;3.50;;
4597;SDS011;62772;48.646;8.906;2023-07-31T01:32:30;5.50;;;2.77;;
4597;SDS011;62772;48.646;8.906;2023-07-31T01:37:32;6.60;;;3.43;;
4597;SDS011;62772;48.646;8.906;2023-07-31T01:42:33;5.73;;;3.50;;
4597;SDS011;62772;48.646;8.906;2023-07-31T01:47:33;7.37;;;3.47;;
4597;SDS011;62772;48.646;8.906;2023-07-31T01:52:33;7.30;;;4.17;;
4597;SDS011;62772;48.646;8.906;2023-07-31T01:57:36;7.70;;;3.60;;
4597;SDS011;62772;48.646;8.906;2023-07-31T02:02:36;6.03;;;3.90;;
4597;SDS011;62772;48.646;8.906;2023-07-31T02:07:37;6.63;;;3.50;;
4597;SDS011;62772;48.646;8.906;2023-07-31T02:12:37;6.50;;;3.30;;
4597;SDS011;62772;48.646;8.906;2023-07-31T02:17:38;5.70;;;3.53;;
4597;SDS011;62772;48.646;8.906;2023-07-31T02:22:38;4.70;;;3.00;;
4597;SDS011;62772;48.646;8.906;2023-07-31T02:27:39;6.50;;;3.17;;
4597;SDS011;62772;48.646;8.906;2023-07-31T02:32:39;5.20;;;3.23;;
4597;SDS011;62772;48.646;8.906;2023-07-31T02:37:40;7.43;;;3.77;;
4597;SDS011;62772;48.646;8.906;2023-07-31T02:42:40;8.77;;;3.30;;
4597;SDS011;62772;48.646;8.906;2023-07-31T02:47:40;6.20;;;3.23;;
4597;SDS011;62772;48.646;8.906;2023-07-31T02:52:41;5.37;;;3.27;;
4597;SDS011;62772;48.646;8.906;2023-07-31T02:57:41;7.47;;;3.40;;
4597;SDS011;62772;48.646;8.906;2023-07-31T03:02:42;6.50;;;3.40;;
4597;SDS011;62772;48.646;8.906;2023-07-31T03:07:42;7.50;;;3.63;;
4597;SDS011;62772;48.646;8.906;2023-07-31T03:12:46;5.90;;;3.97;;
4597;SDS011;62772;48.646;8.906;2023-07-31T03:17:47;7.20;;;4.03;;
4597;SDS011;62772;48.646;8.906;2023-07-31T03:22:48;5.40;;;3.63;;
4597;SDS011;62772;48.646;8.906;2023-07-31T03:27:48;7.10;;;4.20;;
4597;SDS011;62772;48.646;8.906;2023-07-31T03:32:49;7.87;;;3.53;;
4597;SDS011;62772;48.646;8.906;2023-07-31T03:37:50;12.83;;;3.87;;
4597;SDS011;62772;48.646;8.906;2023-07-31T03:42:50;7.07;;;3.60;;
4597;SDS011;62772;48.646;8.906;2023-07-31T03:47:50;12.43;;;4.10;;
4597;SDS011;62772;48.646;8.906;2023-07-31T03:52:51;8.30;;;4.00;;
4597;SDS011;62772;48.646;8.906;2023-07-31T03:57:52;7.30;;;3.80;;
4597;SDS011;62772;48.646;8.906;2023-07-31T04:02:53;6.30;;;4.17;;
4597;SDS011;62772;48.646;8.906;2023-07-31T04:07:53;6.00;;;3.30;;
4597;SDS011;62772;48.646;8.906;2023-07-31T04:12:54;6.13;;;3.40;;
4597;SDS011;62772;48.646;8.906;2023-07-31T04:17:54;5.60;;;3.30;;
4597;SDS011;62772;48.646;8.906;2023-07-31T04:22:55;4.37;;;3.00;;
4597;SDS011;62772;48.646;8.906;2023-07-31T04:27:55;5.57;;;3.20;;
4597;SDS011;62772;48.646;8.906;2023-07-31T04:32:56;6.03;;;3.00;;
4597;SDS011;62772;48.646;8.906;2023-07-31T04:37:56;5.87;;;3.13;;
4597;SDS011;62772;48.646;8.906;2023-07-31T04:42:57;6.20;;;3.60;;
4597;SDS011;62772;48.646;8.906;2023-07-31T04:47:57;6.30;;;2.90;;
4597;SDS011;62772;48.646;8.906;2023-07-31T04:52:58;6.20;;;3.23;;
4597;SDS011;62772;48.646;8.906;2023-07-31T04:57:59;5.13;;;3.00;;
4597;SDS011;62772;48.646;8.906;2023-07-31T05:03:00;5.57;;;3.10;;
4597;SDS011;62772;48.646;8.906;2023-07-31T05:08:01;7.20;;;3.20;;
4597;SDS011;62772;48.646;8.906;2023-07-31T05:13:01;6.87;;;3.50;;
4597;SDS011;62772;48.646;8.906;2023-07-31T05:18:02;6.13;;;3.43;;
4597;SDS011;62772;48.646;8.906;2023-07-31T05:23:02;6.40;;;3.53;;
4597;SDS011;62772;48.646;8.906;2023-07-31T05:28:03;5.20;;;3.27;;
4597;SDS011;62772;48.646;8.906;2023-07-31T05:33:03;7.70;;;3.43;;
4597;SDS011;62772;48.646;8.906;2023-07-31T05:38:04;4.70;;;3.20;;
4597;SDS011;62772;48.646;8.906;2023-07-31T05:43:04;6.57;;;3.07;;
4597;SDS011;62772;48.646;8.906;2023-07-31T05:48:06;4.80;;;3.10;;
4597;SDS011;62772;48.646;8.906;2023-07-31T05:53:07;5.83;;;3.23;;
4597;SDS011;62772;48.646;8.906;2023-07-31T05:58:08;12.33;;;3.83;;
4597;SDS011;62772;48.646;8.906;2023-07-31T06:03:08;6.10;;;3.40;;
4597;SDS011;62772;48.646;8.906;2023-07-31T06:08:09;8.63;;;3.67;;
4597;SDS011;62772;48.646;8.906;2023-07-31T06:13:09;7.37;;;3.40;;
4597;SDS011;62772;48.646;8.906;2023-07-31T06:18:10;8.20;;;3.40;;
4597;SDS011;62772;48.646;8.906;2023-07-31T06:23:10;5.47;;;2.90;;
4597;SDS011;62772;48.646;8.906;2023-07-31T06:28:11;8.90;;;3.47;;
4597;SDS011;62772;48.646;8.906;2023-07-31T06:33:11;6.90;;;2.80;;
4597;SDS011;62772;48.646;8.906;2023-07-31T06:38:12;8.23;;;3.40;;
4597;SDS011;62772;48.646;8.906;2023-07-31T06:43:12;5.80;;;3.20;;
4597;SDS011;62772;48.646;8.906;2023-07-31T06:48:12;7.30;;;2.93;;
4597;SDS011;62772;48.646;8.906;2023-07-31T06:53:13;7.50;;;3.20;;
4597;SDS011;62772;48.646;8.906;2023-07-31T06:58:13;5.13;;;2.77;;
4597;SDS011;62772;48.646;8.906;2023-07-31T07:03:14;5.03;;;2.50;;
4597;SDS011;62772;48.646;8.906;2023-07-31T07:08:14;6.90;;;3.03;;
4597;SDS011;62772;48.646;8.906;2023-07-31T07:13:15;5.77;;;2.90;;
4597;SDS011;62772;48.646;8.906;2023-07-31T07:18:16;6.90;;;2.87;;
4597;SDS011;62772;48.646;8.906;2023-07-31T07:23:17;5.07;;;3.10;;
4597;SDS011;62772;48.646;8.906;2023-07-31T07:28:18;6.60;;;3.13;;
4597;SDS011;62772;48.646;8.906;2023-07-31T07:33:18;6.33;;;2.90;;
4597;SDS011;62772;48.646;8.906;2023-07-31T07:38:19;5.87;;;3.00;;
4597;SDS011;62772;48.646;8.906;2023-07-31T07:43:20;7.67;;;3.40;;
4597;SDS011;62772;48.646;8.906;2023-07-31T07:48:20;7.63;;;2.80;;
4597;SDS011;62772;48.646;8.906;2023-07-31T07:53:21;6.33;;;2.60;;
4597;SDS011;62772;48.646;8.906;2023-07-31T07:58:21;4.70;;;2.60;;
4597;SDS011;62772;48.646;8.906;2023-07-31T08:03:22;5.83;;;2.80;;
4597;SDS011;62772;48.646;8.906;2023-07-31T08:08:22;4.63;;;2.40;;
4597;SDS011;62772;48.646;8.906;2023-07-31T08:13:23;6.80;;;2.87;;
4597;SDS011;62772;48.646;8.906;2023-07-31T08:18:23;4.90;;;2.63;;
4597;SDS011;62772;48.646;8.906;2023-07-31T08:23:24;10.77;;;3.30;;
4597;SDS011;62772;48.646;8.906;2023-07-31T08:28:24;5.50;;;2.67;;
4597;SDS011;62772;48.646;8.906;2023-07-31T08:33:25;8.80;;;3.03;;
4597;SDS011;62772;48.646;8.906;2023-07-31T08:38:26;6.50;;;3.03;;
4597;SDS011;62772;48.646;8.906;2023-07-31T08:43:26;14.00;;;3.17;;
4597;SDS011;62772;48.646;8.906;2023-07-31T08:48:27;5.33;;;2.50;;
4597;SDS011;62772;48.646;8.906;2023-07-31T08:53:29;4.63;;;2.60;;
4597;SDS011;62772;48.646;8.906;2023-07-31T08:58:31;7.77;;;2.60;;
4597;SDS011;62772;48.646;8.906;2023-07-31T09:03:33;5.10;;;2.47;;
4597;SDS011;62772;48.646;8.906;2023-07-31T09:08:37;6.37;;;2.50;;
4597;SDS011;62772;48.646;8.906;2023-07-31T09:13:41;5.57;;;2.77;;
4597;SDS011;62772;48.646;8.906;2023-07-31T09:18:55;6.50;;;3.10;;
4597;SDS011;62772;48.646;8.906;2023-07-31T09:23:57;5.23;;;2.40;;
4597;SDS011;62772;48.646;8.906;2023-07-31T09:28:58;7.77;;;3.10;;
4597;SDS011;62772;48.646;8.906;2023-07-31T09:33:59;6.83;;;2.77;;
4597;SDS011;62772;48.646;8.906;2023-07-31T09:39:03;5.20;;;2.80;;
4597;SDS011;62772;48.646;8.906;2023-07-31T09:44:04;10.60;;;3.03;;
4597;SDS011;62772;48.646;8.906;2023-07-31T09:49:11;6.77;;;2.50;;
4597;SDS011;62772;48.646;8.906;2023-07-31T09:54:14;6.50;;;2.83;;
4597;SDS011;62772;48.646;8.906;2023-07-31T09:59:16;6.30;;;2.80;;
4597;SDS011;62772;48.646;8.906;2023-07-31T10:04:19;5.97;;;2.60;;
4597;SDS011;62772;48.646;8.906;2023-07-31T10:09:27;5.00;;;2.77;;
4597;SDS011;62772;48.646;8.906;2023-07-31T10:14:31;4.67;;;2.30;;
4597;SDS011;62772;48.646;8.906;2023-07-31T10:19:32;4.90;;;3.20;;
4597;SDS011;62772;48.646;8.906;2023-07-31T10:24:35;7.30;;;2.50;;
4597;SDS011;62772;48.646;8.906;2023-07-31T10:29:37;6.27;;;2.30;;
4597;SDS011;62772;48.646;8.906;2023-07-31T10:34:40;5.27;;;2.80;;
4597;SDS011;62772;48.646;8.906;2023-07-31T10:39:41;11.33;;;3.23;;
4597;SDS011;62772;48.646;8.906;2023-07-31T10:44:46;6.73;;;3.03;;
4597;SDS011;62772;48.646;8.906;2023-07-31T10:49:47;7.30;;;2.70;;
4597;SDS011;62772;48.646;8.906;2023-07-31T10:54:49;14.97;;;3.00;;
4597;SDS011;62772;48.646;8.906;2023-07-31T10:59:50;13.47;;;2.70;;
4597;SDS011;62772;48.646;8.906;2023-07-31T11:05:06;7.13;;;2.50;;
4597;SDS011;62772;48.646;8.906;2023-07-31T11:10:08;4.33;;;2.20;;
4597;SDS011;62772;48.646;8.906;2023-07-31T11:15:08;5.07;;;2.63;;
4597;SDS011;62772;48.646;8.906;2023-07-31T11:20:11;7.30;;;3.00;;
4597;SDS011;62772;48.646;8.906;2023-07-31T11:25:11;8.10;;;2.87;;
4597;SDS011;62772;48.646;8.906;2023-07-31T11:30:12;5.87;;;3.07;;
4597;SDS011;62772;48.646;8.906;2023-07-31T11:35:12;7.53;;;2.87;;
4597;SDS011;62772;48.646;8.906;2023-07-31T11:40:13;3.97;;;2.43;;
4597;SDS011;62772;48.646;8.906;2023-07-31T11:45:14;6.07;;;2.70;;
4597;SDS011;62772;48.646;8.906;2023-07-31T11:50:14;5.67;;;3.00;;
4597;SDS011;62772;48.646;8.906;2023-07-31T11:55:15;5.70;;;2.50;;
4597;SDS011;62772;48.646;8.906;2023-07-31T12:00:16;12.30;;;3.10;;
4597;SDS011;62772;48.646;8.906;2023-07-31T12:05:17;7.60;;;3.20;;
4597;SDS011;62772;48.646;8.906;2023-07-31T12:10:31;4.87;;;2.70;;
4597;SDS011;62772;48.646;8.906;2023-07-31T12:15:33;5.70;;;2.87;;
4597;SDS011;62772;48.646;8.906;2023-07-31T12:20:34;5.03;;;2.87;;
4597;SDS011;62772;48.646;8.906;2023-07-31T12:25:35;5.30;;;2.77;;
4597;SDS011;62772;48.646;8.906;2023-07-31T12:30:36;5.50;;;2.93;;
4597;SDS011;62772;48.646;8.906;2023-07-31T12:35:37;6.37;;;2.73;;
4597;SDS011;62772;48.646;8.906;2023-07-31T12:40:41;6.10;;;3.00;;
4597;SDS011;62772;48.646;8.906;2023-07-31T12:45:42;8.93;;;3.00;;
4597;SDS011;62772;48.646;8.906;2023-07-31T12:50:42;4.70;;;2.40;;
4597;SDS011;62772;48.646;8.906;2023-07-31T12:55:43;5.63;;;2.47;;
4597;SDS011;62772;48.646;8.906;2023-07-31T13:00:44;8.50;;;3.03;;
4597;SDS011;62772;48.646;8.906;2023-07-31T13:05:44;8.13;;;2.60;;
4597;SDS011;62772;48.646;8.906;2023-07-31T13:10:44;5.57;;;3.20;;
4597;SDS011;62772;48.646;8.906;2023-07-31T13:15:45;7.73;;;2.97;;
4597;SDS011;62772;48.646;8.906;2023-07-31T13:20:46;8.10;;;3.00;;
4597;SDS011;62772;48.646;8.906;2023-07-31T13:25:46;9.40;;;2.87;;
4597;SDS011;62772;48.646;8.906;2023-07-31T13:30:47;7.70;;;2.63;;
4597;SDS011;62772;48.646;8.906;2023-07-31T13:35:47;6.40;;;2.80;;
4597;SDS011;62772;48.646;8.906;2023-07-31T13:40:48;6.23;;;2.70;;
4597;SDS011;62772;48.646;8.906;2023-07-31T13:45:49;5.63;;;3.10;;
4597;SDS011;62772;48.646;8.906;2023-07-31T13:50:49;7.87;;;2.97;;
4597;SDS011;62772;48.646;8.906;2023-07-31T13:55:50;5.97;;;2.67;;
4597;SDS011;62772;48.646;8.906;2023-07-31T14:00:50;5.47;;;2.50;;
4597;SDS011;62772;48.646;8.906;2023-07-31T14:05:51;5.23;;;2.87;;
4597;SDS011;62772;48.646;8.906;2023-07-31T14:10:52;10.33;;;2.53;;
4597;SDS011;62772;48.646;8.906;2023-07-31T14:15:53;6.53;;;3.07;;
4597;SDS011;62772;48.646;8.906;2023-07-31T14:20:53;4.20;;;2.53;;
4597;SDS011;62772;48.646;8.906;2023-07-31T14:25:53;5.97;;;2.80;;
4597;SDS011;62772;48.646;8.906;2023-07-31T14:30:54;5.50;;;2.60;;
4597;SDS011;62772;48.646;8.906;2023-07-31T14:35:54;4.47;;;2.53;;
4597;SDS011;62772;48.646;8.906;2023-07-31T14:40:55;3.20;;;2.20;;
4597;SDS011;62772;48.646;8.906;2023-07-31T14:45:56;6.80;;;2.90;;
4597;SDS011;62772;48.646;8.906;2023-07-31T14:50:59;4.67;;;2.90;;
4597;SDS011;62772;48.646;8.906;2023-07-31T14:56:01;5.93;;;2.97;;
4597;SDS011;62772;48.646;8.906;2023-07-31T15:01:01;4.17;;;2.27;;
4597;SDS011;62772;48.646;8.906;2023-07-31T15:06:02;7.87;;;3.30;;
4597;SDS011;62772;48.646;8.906;2023-07-31T15:11:02;5.03;;;2.83;;
4597;SDS011;62772;48.646;8.906;2023-07-31T15:16:03;7.37;;;2.97;;
4597;SDS011;62772;48.646;8.906;2023-07-31T15:21:04;6.00;;;3.10;;
4597;SDS011;62772;48.646;8.906;2023-07-31T15:26:06;5.47;;;2.50;;
4597;SDS011;62772;48.646;8.906;2023-07-31T15:31:07;6.53;;;2.70;;
4597;SDS011;62772;48.646;8.906;2023-07-31T15:36:07;7.23;;;2.53;;
4597;SDS011;62772;48.646;8.906;2023-07-31T15:41:08;4.90;;;2.70;;
4597;SDS011;62772;48.646;8.906;2023-07-31T15:46:08;5.27;;;2.60;;
4597;SDS011;62772;48.646;8.906;2023-07-31T15:51:09;4.70;;;3.07;;
4597;SDS011;62772;48.646;8.906;2023-07-31T15:56:10;5.20;;;2.77;;
4597;SDS011;62772;48.646;8.906;2023-07-31T16:01:10;3.93;;;2.60;;
4597;SDS011;62772;48.646;8.906;2023-07-31T16:06:11;5.33;;;2.80;;
4597;SDS011;62772;48.646;8.906;2023-07-31T16:11:11;5.20;;;3.00;;
4597;SDS011;62772;48.646;8.906;2023-07-31T16:16:12;4.03;;;2.70;;
4597;SDS011;62772;48.646;8.906;2023-07-31T16:21:12;5.30;;;2.60;;
4597;SDS011;62772;48.646;8.906;2023-07-31T16:26:12;4.20;;;2.57;;
4597;SDS011;62772;48.646;8.906;2023-07-31T16:31:13;5.23;;;2.83;;
4597;SDS011;62772;48.646;8.906;2023-07-31T16:36:13;5.37;;;2.50;;
4597;SDS011;62772;48.646;8.906;2023-07-31T16:41:14;4.87;;;3.03;;
4597;SDS011;62772;48.646;8.906;2023-07-31T16:46:14;8.33;;;3.00;;
4597;SDS011;62772;48.646;8.906;2023-07-31T16:51:15;7.97;;;2.67;;
4597;SDS011;62772;48.646;8.906;2023-07-31T16:56:15;6.97;;;2.80;;
4597;SDS011;62772;48.646;8.906;2023-07-31T17:01:16;3.80;;;2.40;;
4597;SDS011;62772;48.646;8.906;2023-07-31T17:06:16;3.83;;;2.50;;
4597;SDS011;62772;48.646;8.906;2023-07-31T17:11:17;6.17;;;3.00;;
4597;SDS011;62772;48.646;8.906;2023-07-31T17:16:18;10.10;;;3.27;;
4597;SDS011;62772;48.646;8.906;2023-07-31T17:21:19;5.80;;;3.10;;
4597;SDS011;62772;48.646;8.906;2023-07-31T17:26:20;4.90;;;2.77;;
4597;SDS011;62772;48.646;8.906;2023-07-31T17:31:20;4.80;;;2.80;;
4597;SDS011;62772;48.646;8.906;2023-07-31T17:36:21;6.00;;;2.67;;
4597;SDS011;62772;48.646;8.906;2023-07-31T17:41:24;5.93;;;2.97;;
4597;SDS011;62772;48.646;8.906;2023-07-31T17:46:29;6.20;;;3.00;;
4597;SDS011;62772;48.646;8.906;2023-07-31T17:51:30;4.70;;;2.60;;
4597;SDS011;62772;48.646;8.906;2023-07-31T17:56:33;5.00;;;3.20;;
4597;SDS011;62772;48.646;8.906;2023-07-31T18:01:37;5.73;;;3.50;;
4597;SDS011;62772;48.646;8.906;2023-07-31T18:06:38;6.77;;;3.13;;
4597;SDS011;62772;48.646;8.906;2023-07-31T18:11:38;5.10;;;2.57;;
4597;SDS011;62772;48.646;8.906;2023-07-31T18:16:39;5.10;;;2.90;;
4597;SDS011;62772;48.646;8.906;2023-07-31T18:21:39;8.20;;;3.00;;
4597;SDS011;62772;48.646;8.906;2023-07-31T18:26:39;8.47;;;3.13;;
4597;SDS011;62772;48.646;8.906;2023-07-31T18:31:40;6.63;;;2.87;;
4597;SDS011;62772;48.646;8.906;2023-07-31T18:36:40;9.27;;;4.20;;
4597;SDS011;62772;48.646;8.906;2023-07-31T18:41:42;6.13;;;3.33;;
4597;SDS011;62772;48.646;8.906;2023-07-31T18:46:42;6.37;;;3.50;;
4597;SDS011;62772;48.646;8.906;2023-07-31T18:51:43;6.00;;;3.87;;
4597;SDS011;62772;48.646;8.906;2023-07-31T18:56:43;4.07;;;2.40;;
4597;SDS011;62772;48.646;8.906;2023-07-31T19:01:44;8.07;;;3.93;;
4597;SDS011;62772;48.646;8.906;2023-07-31T19:06:45;9.50;;;3.00;;
4597;SDS011;62772;48.646;8.906;2023-07-31T19:11:46;7.37;;;3.20;;
4597;SDS011;62772;48.646;8.906;2023-07-31T19:16:46;6.40;;;3.50;;
4597;SDS011;62772;48.646;8.906;2023-07-31T19:21:47;7.87;;;3.63;;
4597;SDS011;62772;48.646;8.906;2023-07-31T19:26:47;7.07;;;3.53;;
4597;SDS011;62772;48.646;8.906;2023-07-31T19:31:48;6.90;;;3.33;;
4597;SDS011;62772;48.646;8.906;2023-07-31T19:36:48;6.97;;;3.47;;
4597;SDS011;62772;48.646;8.906;2023-07-31T19:41:49;8.07;;;3.87;;
4597;SDS011;62772;48.646;8.906;2023-07-31T19:46:49;8.10;;;3.70;;
4597;SDS011;62772;48.646;8.906;2023-07-31T19:51:50;8.23;;;3.60;;
4597;SDS011;62772;48.646;8.906;2023-07-31T19:56:50;8.00;;;3.90;;
4597;SDS011;62772;48.646;8.906;2023-07-31T20:01:53;7.97;;;3.70;;
4597;SDS011;62772;48.646;8.906;2023-07-31T20:06:53;6.23;;;3.40;;
4597;SDS011;62772;48.646;8.906;2023-07-31T20:11:54;7.20;;;3.30;;
4597;SDS011;62772;48.646;8.906;2023-07-31T20:16:56;7.33;;;3.57;;
4597;SDS011;62772;48.646;8.906;2023-07-31T20:21:56;7.97;;;3.70;;
4597;SDS011;62772;48.646;8.906;2023-07-31T20:26:57;6.40;;;3.53;;
4597;SDS011;62772;48.646;8.906;2023-07-31T20:31:58;7.60;;;4.50;;
4597;SDS011;62772;48.646;8.906;2023-07-31T20:36:59;6.60;;;4.10;;
4597;SDS011;62772;48.646;8.906;2023-07-31T20:41:59;7.60;;;4.20;;
4597;SDS011;62772;48.646;8.906;2023-07-31T20:47:00;10.33;;;4.17;;
4597;SDS011;62772;48.646;8.906;2023-07-31T20:52:00;5.90;;;3.50;;
4597;SDS011;62772;48.646;8.906;2023-07-31T20:57:01;6.63;;;3.67;;
4597;SDS011;62772;48.646;8.906;2023-07-31T21:02:02;7.80;;;3.97;;
4597;SDS011;62772;48.646;8.906;2023-07-31T21:07:03;6.33;;;3.57;;
4597;SDS011;62772;48.646;8.906;2023-07-31T21:12:03;6.13;;;3.43;;
4597;SDS011;62772;48.646;8.906;2023-07-31T21:17:04;10.63;;;4.47;;
4597;SDS011;62772;48.646;8.906;2023-07-31T21:22:05;6.93;;;3.43;;
4597;SDS011;62772;48.646;8.906;2023-07-31T21:27:06;8.37;;;4.07;;
4597;SDS011;62772;48.646;8.906;2023-07-31T21:32:07;6.10;;;3.73;;
4597;SDS011;62772;48.646;8.906;2023-07-31T21:37:10;7.37;;;3.97;;
4597;SDS011;62772;48.646;8.906;2023-07-31T21:42:11;6.70;;;3.93;;
4597;SDS011;62772;48.646;8.906;2023-07-31T21:47:11;8.00;;;3.90;;
4597;SDS011;62772;48.646;8.906;2023-07-31T21:52:12;9.40;;;3.90;;
4597;SDS011;62772;48.646;8.906;2023-07-31T21:57:12;7.83;;;3.93;;
4597;SDS011;62772;48.646;8.906;2023-07-31T22:02:13;13.30;;;4.17;;
4597;SDS011;62772;48.646;8.906;2023-07-31T22:07:13;7.73;;;4.30;;
4597;SDS011;62772;48.646;8.906;2023-07-31T22:12:14;9.00;;;4.30;;
4597;SDS011;62772;48.646;8.906;2023-07-31T22:17:14;11.30;;;4.73;;
4597;SDS011;62772;48.646;8.906;2023-07-31T22:22:15;8.17;;;4.30;;
4597;SDS011;62772;48.646;8.906;2023-07-31T22:27:15;9.73;;;4.30;;
4597;SDS011;62772;48.646;8.906;2023-07-31T22:32:16;8.37;;;3.77;;
4597;SDS011;62772;48.646;8.906;2023-07-31T22:37:16;11.40;;;4.27;;
4597;SDS011;62772;48.646;8.906;2023-07-31T22:42:17;8.50;;;4.77;;
4597;SDS011;62772;48.646;8.906;2023-07-31T22:47:17;9.43;;;4.20;;
4597;SDS011;62772;48.646;8.906;2023-07-31T22:52:18;10.43;;;3.90;;
4597;SDS011;62772;48.646;8.906;2023-07-31T22:57:18;9.03;;;3.90;;
4597;SDS011;62772;48.646;8.906;2023-07-31T23:02:19;8.97;;;4.67;;
4597;SDS011;62772;48.646;8.906;2023-07-31T23:25:33;8.17;;;4.40;;
4597;SDS011;62772;48.646;8.906;2023-07-31T23:30:34;10.70;;;4.50;;
4597;SDS011;62772;48.646;8.906;2023-07-31T23:35:35;8.20;;;4.30;;
4597;SDS011;62772;48.646;8.906;2023-07-31T23:40:35;8.00;;;4.23;;
4597;SDS011;62772;48.646;8.906;2023-07-31T23:45:35;7.70;;;4.33;;
4597;SDS011;62772;48.646;8.906;2023-07-31T23:50:36;6.33;;;4.07;;
4597;SDS011;62772;48.646;8.906;2023-07-31T23:55:37;8.07;;;4.33;;
